sensor_id;sensor_type;location;lat;lon;timestamp;temperature;humidity
17845;DHT22;9047;53.486;10.218;2024-01-15T00:02:04;1.90;99.90
17845;DHT22;9047;53.486;10.218;2024-01-15T00:04:35;1.80;99.90
17845;DHT22;9047;53.486;10.218;2024-01-15T00:07:03;1.90;99.90
17845;DHT22;9047;53.486;10.218;2024-01-15T00:09:31;2.00;99.90
17845;DHT22;9047;53.486;10.218;2024-01-15T00:12:01;1.90;99.90
17845;DHT22;9047;53.486;10.218;2024-01-15T00:14:29;1.90;99.90
17845;DHT22;9047;53.486;10.218;2024-01-15T00:16:56;2.00;99.90
17845;DHT22;9047;53.486;10.218;2024-01-15T00:19:26;2.10;99.90
17845;DHT22;9047;53.486;10.218;2024-01-15T00:21:53;2.00;99.90
17845;DHT22;9047;53.486;10.218;2024-01-15T00:24:22;2.10;99.90
17845;DHT22;9047;53.486;10.218;2024-01-15T00:26:57;2.10;99.90
17845;DHT22;9047;53.486;10.218;2024-01-15T00:29:24;2.20;99.90
17845;DHT22;9047;53.486;10.218;2024-01-15T00:31:52;2.20;99.90
17845;DHT22;9047;53.486;10.218;2024-01-15T00:34:20;2.20;99.90
17845;DHT22;9047;53.486;10.218;2024-01-15T00:36:50;2.10;99.90
17845;DHT22;9047;53.486;10.218;2024-01-15T00:39:17;2.10;99.90
17845;DHT22;9047;53.486;10.218;2024-01-15T00:41:45;2.10;99.90
17845;DHT22;9047;53.486;10.218;2024-01-15T00:44:13;2.10;99.90
17845;DHT22;9047;53.486;10.218;2024-01-15T00:46:47;2.10;99.90
17845;DHT22;9047;53.486;10.218;2024-01-15T00:49:15;2.20;99.90
17845;DHT22;9047;53.486;10.218;2024-01-15T00:51:45;2.20;99.90
17845;DHT22;9047;53.486;10.218;2024-01-15T00:54:14;2.20;99.90
17845;DHT22;9047;53.486;10.218;2024-01-15T00:56:41;2.20;99.90
17845;DHT22;9047;53.486;10.218;2024-01-15T00:59:10;2.20;99.90
17845;DHT22;9047;53.486;10.218;2024-01-15T01:01:42;2.20;99.90
17845;DHT22;9047;53.486;10.218;2024-01-15T01:04:12;2.20;99.90
17845;DHT22;9047;53.486;10.218;2024-01-15T01:06:41;2.20;99.90
17845;DHT22;9047;53.486;10.218;2024-01-15T01:09:09;2.20;99.90
17845;DHT22;9047;53.486;10.218;2024-01-15T01:11:39;2.20;99.90
17845;DHT22;9047;53.486;10.218;2024-01-15T01:14:06;2.20;99.90
17845;DHT22;9047;53.486;10.218;2024-01-15T01:16:35;2.20;99.90
17845;DHT22;9047;53.486;10.218;2024-01-15T01:19:12;2.20;99.90
17845;DHT22;9047;53.486;10.218;2024-01-15T01:21:39;2.20;99.90
17845;DHT22;9047;53.486;10.218;2024-01-15T01:24:07;2.20;99.90
17845;DHT22;9047;53.486;10.218;2024-01-15T01:26:34;2.20;99.90
17845;DHT22;9047;53.486;10.218;2024-01-15T01:29:04;2.30;99.90
17845;DHT22;9047;53.486;10.218;2024-01-15T01:31:32;2.30;99.90
17845;DHT22;9047;53.486;10.218;2024-01-15T01:33:59;2.30;99.90
17845;DHT22;9047;53.486;10.218;2024-01-15T01:36:26;2.30;99.90
17845;DHT22;9047;53.486;10.218;2024-01-15T01:38:52;2.40;99.90
17845;DHT22;9047;53.486;10.218;2024-01-15T01:41:19;2.40;99.90
17845;DHT22;9047;53.486;10.218;2024-01-15T01:43:46;2.40;99.90
17845;DHT22;9047;53.486;10.218;2024-01-15T01:46:15;2.50;99.90
17845;DHT22;9047;53.486;10.218;2024-01-15T01:48:43;2.50;99.90
17845;DHT22;9047;53.486;10.218;2024-01-15T01:51:10;2.50;99.90
17845;DHT22;9047;53.486;10.218;2024-01-15T01:53:39;2.50;99.90
17845;DHT22;9047;53.486;10.218;2024-01-15T01:56:08;2.50;99.90
17845;DHT22;9047;53.486;10.218;2024-01-15T01:58:35;2.50;99.90
17845;DHT22;9047;53.486;10.218;2024-01-15T02:01:03;2.50;99.90
17845;DHT22;9047;53.486;10.218;2024-01-15T02:03:31;2.50;99.90
17845;DHT22;9047;53.486;10.218;2024-01-15T02:06:00;2.50;99.90
17845;DHT22;9047;53.486;10.218;2024-01-15T02:08:27;2.60;99.90
17845;DHT22;9047;53.486;10.218;2024-01-15T02:10:54;2.60;99.90
17845;DHT22;9047;53.486;10.218;2024-01-15T02:13:21;2.60;99.90
17845;DHT22;9047;53.486;10.218;2024-01-15T02:15:48;2.60;99.90
17845;DHT22;9047;53.486;10.218;2024-01-15T02:18:17;2.60;99.90
17845;DHT22;9047;53.486;10.218;2024-01-15T02:20:47;2.60;99.90
17845;DHT22;9047;53.486;10.218;2024-01-15T02:23:15;2.60;99.90
17845;DHT22;9047;53.486;10.218;2024-01-15T02:25:44;2.60;99.90
17845;DHT22;9047;53.486;10.218;2024-01-15T02:28:12;2.60;99.90
17845;DHT22;9047;53.486;10.218;2024-01-15T02:30:40;2.60;99.90
17845;DHT22;9047;53.486;10.218;2024-01-15T02:33:08;2.60;99.90
17845;DHT22;9047;53.486;10.218;2024-01-15T02:35:35;2.50;99.90
17845;DHT22;9047;53.486;10.218;2024-01-15T02:38:02;2.50;99.90
17845;DHT22;9047;53.486;10.218;2024-01-15T02:40:31;2.50;99.90
17845;DHT22;9047;53.486;10.218;2024-01-15T02:42:58;2.50;99.90
17845;DHT22;9047;53.486;10.218;2024-01-15T02:45:26;2.50;99.90
17845;DHT22;9047;53.486;10.218;2024-01-15T02:47:53;2.50;99.90
17845;DHT22;9047;53.486;10.218;2024-01-15T02:50:20;2.50;99.90
17845;DHT22;9047;53.486;10.218;2024-01-15T02:52:48;2.50;99.90
17845;DHT22;9047;53.486;10.218;2024-01-15T02:55:15;2.60;99.90
17845;DHT22;9047;53.486;10.218;2024-01-15T02:57:44;2.60;99.90
17845;DHT22;9047;53.486;10.218;2024-01-15T03:00:11;2.60;99.90
17845;DHT22;9047;53.486;10.218;2024-01-15T03:02:40;2.70;99.90
17845;DHT22;9047;53.486;10.218;2024-01-15T03:05:09;2.70;99.90
17845;DHT22;9047;53.486;10.218;2024-01-15T03:07:36;2.70;99.90
17845;DHT22;9047;53.486;10.218;2024-01-15T03:10:05;2.70;99.90
17845;DHT22;9047;53.486;10.218;2024-01-15T03:12:32;2.80;99.90
17845;DHT22;9047;53.486;10.218;2024-01-15T03:15:01;2.80;99.90
17845;DHT22;9047;53.486;10.218;2024-01-15T03:17:28;2.80;99.90
17845;DHT22;9047;53.486;10.218;2024-01-15T03:19:55;2.80;99.90
17845;DHT22;9047;53.486;10.218;2024-01-15T03:22:23;2.70;99.90
17845;DHT22;9047;53.486;10.218;2024-01-15T03:24:50;2.70;99.90
17845;DHT22;9047;53.486;10.218;2024-01-15T03:27:17;2.70;99.90
17845;DHT22;9047;53.486;10.218;2024-01-15T03:29:44;2.70;99.90
17845;DHT22;9047;53.486;10.218;2024-01-15T03:32:12;2.70;99.90
17845;DHT22;9047;53.486;10.218;2024-01-15T03:34:41;2.60;99.90
17845;DHT22;9047;53.486;10.218;2024-01-15T03:37:09;2.60;99.90
17845;DHT22;9047;53.486;10.218;2024-01-15T03:39:37;2.60;99.90
17845;DHT22;9047;53.486;10.218;2024-01-15T03:42:06;2.50;99.90
17845;DHT22;9047;53.486;10.218;2024-01-15T03:44:33;2.50;99.90
17845;DHT22;9047;53.486;10.218;2024-01-15T03:47:06;2.40;99.90
17845;DHT22;9047;53.486;10.218;2024-01-15T03:49:35;2.40;99.90
17845;DHT22;9047;53.486;10.218;2024-01-15T03:52:02;2.40;99.90
17845;DHT22;9047;53.486;10.218;2024-01-15T03:54:29;2.40;99.90
17845;DHT22;9047;53.486;10.218;2024-01-15T03:56:56;2.40;99.90
17845;DHT22;9047;53.486;10.218;2024-01-15T03:59:24;2.40;99.90
17845;DHT22;9047;53.486;10.218;2024-01-15T04:01:52;2.40;99.90
17845;DHT22;9047;53.486;10.218;2024-01-15T04:04:19;2.40;99.90
17845;DHT22;9047;53.486;10.218;2024-01-15T04:06:48;2.40;99.90
17845;DHT22;9047;53.486;10.218;2024-01-15T04:09:15;2.40;99.90
17845;DHT22;9047;53.486;10.218;2024-01-15T04:11:47;2.50;99.90
17845;DHT22;9047;53.486;10.218;2024-01-15T04:14:14;2.50;99.90
17845;DHT22;9047;53.486;10.218;2024-01-15T04:16:41;2.50;99.90
17845;DHT22;9047;53.486;10.218;2024-01-15T04:19:08;2.40;99.90
17845;DHT22;9047;53.486;10.218;2024-01-15T04:21:36;2.40;99.90
17845;DHT22;9047;53.486;10.218;2024-01-15T04:24:06;2.30;99.90
17845;DHT22;9047;53.486;10.218;2024-01-15T04:26:33;2.30;99.90
17845;DHT22;9047;53.486;10.218;2024-01-15T04:29:00;2.30;99.90
17845;DHT22;9047;53.486;10.218;2024-01-15T04:31:31;2.30;99.90
17845;DHT22;9047;53.486;10.218;2024-01-15T04:33:58;2.20;99.90
17845;DHT22;9047;53.486;10.218;2024-01-15T04:36:24;2.20;99.90
17845;DHT22;9047;53.486;10.218;2024-01-15T04:38:51;2.20;99.90
17845;DHT22;9047;53.486;10.218;2024-01-15T04:41:20;2.20;99.90
17845;DHT22;9047;53.486;10.218;2024-01-15T04:43:47;2.20;99.90
17845;DHT22;9047;53.486;10.218;2024-01-15T04:46:14;2.20;99.90
17845;DHT22;9047;53.486;10.218;2024-01-15T04:48:41;2.10;99.90
17845;DHT22;9047;53.486;10.218;2024-01-15T04:51:09;2.10;99.90
17845;DHT22;9047;53.486;10.218;2024-01-15T04:53:36;2.10;99.90
17845;DHT22;9047;53.486;10.218;2024-01-15T04:56:04;2.00;99.90
17845;DHT22;9047;53.486;10.218;2024-01-15T04:58:32;2.00;99.90
17845;DHT22;9047;53.486;10.218;2024-01-15T05:01:01;2.00;99.90
17845;DHT22;9047;53.486;10.218;2024-01-15T05:03:28;2.00;99.90
17845;DHT22;9047;53.486;10.218;2024-01-15T05:05:57;2.00;99.90
17845;DHT22;9047;53.486;10.218;2024-01-15T05:08:24;2.00;99.90
17845;DHT22;9047;53.486;10.218;2024-01-15T05:10:51;1.90;99.90
17845;DHT22;9047;53.486;10.218;2024-01-15T05:13:19;1.90;99.90
17845;DHT22;9047;53.486;10.218;2024-01-15T05:15:47;1.90;99.90
17845;DHT22;9047;53.486;10.218;2024-01-15T05:18:16;1.90;99.90
17845;DHT22;9047;53.486;10.218;2024-01-15T05:20:43;1.90;99.90
17845;DHT22;9047;53.486;10.218;2024-01-15T05:23:10;1.90;99.90
17845;DHT22;9047;53.486;10.218;2024-01-15T05:25:37;1.90;99.90
17845;DHT22;9047;53.486;10.218;2024-01-15T05:28:06;1.90;99.90
17845;DHT22;9047;53.486;10.218;2024-01-15T05:30:33;1.90;99.90
17845;DHT22;9047;53.486;10.218;2024-01-15T05:33:01;2.00;99.90
17845;DHT22;9047;53.486;10.218;2024-01-15T05:35:29;1.90;99.90
17845;DHT22;9047;53.486;10.218;2024-01-15T05:37:55;1.90;99.90
17845;DHT22;9047;53.486;10.218;2024-01-15T05:40:22;2.00;99.90
17845;DHT22;9047;53.486;10.218;2024-01-15T05:42:49;2.00;99.90
17845;DHT22;9047;53.486;10.218;2024-01-15T05:45:16;2.00;99.90
17845;DHT22;9047;53.486;10.218;2024-01-15T05:47:43;2.00;99.90
17845;DHT22;9047;53.486;10.218;2024-01-15T05:50:12;2.10;99.90
17845;DHT22;9047;53.486;10.218;2024-01-15T05:52:38;2.10;99.90
17845;DHT22;9047;53.486;10.218;2024-01-15T05:55:06;2.20;99.90
17845;DHT22;9047;53.486;10.218;2024-01-15T05:57:33;2.30;99.90
17845;DHT22;9047;53.486;10.218;2024-01-15T06:00:00;2.30;99.90
17845;DHT22;9047;53.486;10.218;2024-01-15T06:02:28;2.40;99.90
17845;DHT22;9047;53.486;10.218;2024-01-15T06:04:54;2.40;99.90
17845;DHT22;9047;53.486;10.218;2024-01-15T06:07:27;2.50;99.90
17845;DHT22;9047;53.486;10.218;2024-01-15T06:09:54;2.50;99.90
17845;DHT22;9047;53.486;10.218;2024-01-15T06:12:22;2.50;99.90
17845;DHT22;9047;53.486;10.218;2024-01-15T06:14:51;2.50;99.90
17845;DHT22;9047;53.486;10.218;2024-01-15T06:17:18;2.60;99.90
17845;DHT22;9047;53.486;10.218;2024-01-15T06:19:45;2.70;99.90
17845;DHT22;9047;53.486;10.218;2024-01-15T06:22:13;2.60;99.90
17845;DHT22;9047;53.486;10.218;2024-01-15T06:24:41;2.60;99.90
17845;DHT22;9047;53.486;10.218;2024-01-15T06:27:08;2.60;99.90
17845;DHT22;9047;53.486;10.218;2024-01-15T06:29:37;2.60;99.90
17845;DHT22;9047;53.486;10.218;2024-01-15T06:32:04;2.70;99.90
17845;DHT22;9047;53.486;10.218;2024-01-15T06:34:32;2.70;99.90
17845;DHT22;9047;53.486;10.218;2024-01-15T06:36:58;2.60;99.90
17845;DHT22;9047;53.486;10.218;2024-01-15T06:39:25;2.60;99.90
17845;DHT22;9047;53.486;10.218;2024-01-15T06:41:53;2.60;99.90
17845;DHT22;9047;53.486;10.218;2024-01-15T06:44:20;2.60;99.90
17845;DHT22;9047;53.486;10.218;2024-01-15T06:46:48;2.60;99.90
17845;DHT22;9047;53.486;10.218;2024-01-15T06:49:15;2.70;99.90
17845;DHT22;9047;53.486;10.218;2024-01-15T06:51:42;2.70;99.90
17845;DHT22;9047;53.486;10.218;2024-01-15T06:54:09;2.70;99.90
17845;DHT22;9047;53.486;10.218;2024-01-15T06:56:35;2.70;99.90
17845;DHT22;9047;53.486;10.218;2024-01-15T06:59:03;2.70;99.90
17845;DHT22;9047;53.486;10.218;2024-01-15T07:01:30;2.70;99.90
17845;DHT22;9047;53.486;10.218;2024-01-15T07:03:57;2.70;99.90
17845;DHT22;9047;53.486;10.218;2024-01-15T07:06:23;2.70;99.90
17845;DHT22;9047;53.486;10.218;2024-01-15T07:08:50;2.70;99.90
17845;DHT22;9047;53.486;10.218;2024-01-15T07:11:17;2.70;99.90
17845;DHT22;9047;53.486;10.218;2024-01-15T07:13:44;2.60;99.90
17845;DHT22;9047;53.486;10.218;2024-01-15T07:16:12;2.60;99.90
17845;DHT22;9047;53.486;10.218;2024-01-15T07:18:39;2.60;99.90
17845;DHT22;9047;53.486;10.218;2024-01-15T07:21:05;2.60;99.90
17845;DHT22;9047;53.486;10.218;2024-01-15T07:23:32;2.50;99.90
17845;DHT22;9047;53.486;10.218;2024-01-15T07:25:59;2.50;99.90
17845;DHT22;9047;53.486;10.218;2024-01-15T07:28:28;2.50;99.90
17845;DHT22;9047;53.486;10.218;2024-01-15T07:30:55;2.50;99.90
17845;DHT22;9047;53.486;10.218;2024-01-15T07:33:23;2.50;99.90
17845;DHT22;9047;53.486;10.218;2024-01-15T07:35:51;2.50;99.90
17845;DHT22;9047;53.486;10.218;2024-01-15T07:38:18;2.50;99.90
17845;DHT22;9047;53.486;10.218;2024-01-15T07:40:45;2.50;99.90
17845;DHT22;9047;53.486;10.218;2024-01-15T07:43:14;2.50;99.90
17845;DHT22;9047;53.486;10.218;2024-01-15T07:45:41;2.60;99.90
17845;DHT22;9047;53.486;10.218;2024-01-15T07:48:08;2.60;99.90
17845;DHT22;9047;53.486;10.218;2024-01-15T07:50:36;2.60;99.90
17845;DHT22;9047;53.486;10.218;2024-01-15T07:53:03;2.60;99.90
17845;DHT22;9047;53.486;10.218;2024-01-15T07:55:30;2.70;99.90
17845;DHT22;9047;53.486;10.218;2024-01-15T07:57:57;2.70;99.90
17845;DHT22;9047;53.486;10.218;2024-01-15T08:00:25;2.80;99.90
17845;DHT22;9047;53.486;10.218;2024-01-15T08:02:52;2.80;99.90
17845;DHT22;9047;53.486;10.218;2024-01-15T08:05:19;2.80;99.90
17845;DHT22;9047;53.486;10.218;2024-01-15T08:07:47;2.80;99.90
17845;DHT22;9047;53.486;10.218;2024-01-15T08:10:14;2.90;99.90
17845;DHT22;9047;53.486;10.218;2024-01-15T08:12:47;2.90;99.90
17845;DHT22;9047;53.486;10.218;2024-01-15T08:15:16;2.90;99.90
17845;DHT22;9047;53.486;10.218;2024-01-15T08:17:43;2.90;99.90
17845;DHT22;9047;53.486;10.218;2024-01-15T08:20:10;2.90;99.90
17845;DHT22;9047;53.486;10.218;2024-01-15T08:22:38;2.90;99.90
17845;DHT22;9047;53.486;10.218;2024-01-15T08:25:07;2.90;99.90
17845;DHT22;9047;53.486;10.218;2024-01-15T08:27:35;2.90;99.90
17845;DHT22;9047;53.486;10.218;2024-01-15T08:30:02;3.00;99.90
17845;DHT22;9047;53.486;10.218;2024-01-15T08:32:29;3.00;99.90
17845;DHT22;9047;53.486;10.218;2024-01-15T08:34:56;3.00;99.90
17845;DHT22;9047;53.486;10.218;2024-01-15T08:37:23;3.00;99.90
17845;DHT22;9047;53.486;10.218;2024-01-15T08:39:50;3.10;99.90
17845;DHT22;9047;53.486;10.218;2024-01-15T08:42:19;3.10;99.90
17845;DHT22;9047;53.486;10.218;2024-01-15T08:44:46;3.10;99.90
17845;DHT22;9047;53.486;10.218;2024-01-15T08:47:13;3.10;99.90
17845;DHT22;9047;53.486;10.218;2024-01-15T08:49:41;3.20;99.90
17845;DHT22;9047;53.486;10.218;2024-01-15T08:52:08;3.20;99.90
17845;DHT22;9047;53.486;10.218;2024-01-15T08:54:35;3.20;99.90
17845;DHT22;9047;53.486;10.218;2024-01-15T08:57:02;3.20;99.90
17845;DHT22;9047;53.486;10.218;2024-01-15T08:59:30;3.20;99.90
17845;DHT22;9047;53.486;10.218;2024-01-15T09:01:57;3.20;99.90
17845;DHT22;9047;53.486;10.218;2024-01-15T09:04:25;3.20;99.90
17845;DHT22;9047;53.486;10.218;2024-01-15T09:06:52;3.20;99.90
17845;DHT22;9047;53.486;10.218;2024-01-15T09:09:18;3.20;99.90
17845;DHT22;9047;53.486;10.218;2024-01-15T09:11:45;3.20;99.90
17845;DHT22;9047;53.486;10.218;2024-01-15T09:14:16;3.20;99.90
17845;DHT22;9047;53.486;10.218;2024-01-15T09:16:45;3.30;99.90
17845;DHT22;9047;53.486;10.218;2024-01-15T09:19:12;3.30;99.90
17845;DHT22;9047;53.486;10.218;2024-01-15T09:21:40;3.30;99.90
17845;DHT22;9047;53.486;10.218;2024-01-15T09:24:08;3.30;99.90
17845;DHT22;9047;53.486;10.218;2024-01-15T09:26:35;3.20;99.90
17845;DHT22;9047;53.486;10.218;2024-01-15T09:29:02;3.20;99.90
17845;DHT22;9047;53.486;10.218;2024-01-15T09:31:29;3.20;99.90
17845;DHT22;9047;53.486;10.218;2024-01-15T09:33:58;3.20;99.90
17845;DHT22;9047;53.486;10.218;2024-01-15T09:36:25;3.20;99.90
17845;DHT22;9047;53.486;10.218;2024-01-15T09:38:52;3.20;99.90
17845;DHT22;9047;53.486;10.218;2024-01-15T09:41:19;3.20;99.90
17845;DHT22;9047;53.486;10.218;2024-01-15T09:43:46;3.10;99.90
17845;DHT22;9047;53.486;10.218;2024-01-15T09:46:14;3.10;99.90
17845;DHT22;9047;53.486;10.218;2024-01-15T09:48:42;3.00;99.90
17845;DHT22;9047;53.486;10.218;2024-01-15T09:51:10;2.90;99.90
17845;DHT22;9047;53.486;10.218;2024-01-15T09:53:37;2.90;99.90
17845;DHT22;9047;53.486;10.218;2024-01-15T09:56:05;2.80;99.90
17845;DHT22;9047;53.486;10.218;2024-01-15T09:58:33;2.70;99.90
17845;DHT22;9047;53.486;10.218;2024-01-15T10:01:01;2.50;99.90
17845;DHT22;9047;53.486;10.218;2024-01-15T10:03:29;2.40;99.90
17845;DHT22;9047;53.486;10.218;2024-01-15T10:05:58;2.30;99.90
17845;DHT22;9047;53.486;10.218;2024-01-15T10:08:27;2.30;99.90
17845;DHT22;9047;53.486;10.218;2024-01-15T10:10:54;2.20;99.90
17845;DHT22;9047;53.486;10.218;2024-01-15T10:13:22;2.10;99.90
17845;DHT22;9047;53.486;10.218;2024-01-15T10:15:49;2.00;99.90
17845;DHT22;9047;53.486;10.218;2024-01-15T10:18:18;1.90;99.90
17845;DHT22;9047;53.486;10.218;2024-01-15T10:20:45;1.80;99.90
17845;DHT22;9047;53.486;10.218;2024-01-15T10:23:14;1.70;99.90
17845;DHT22;9047;53.486;10.218;2024-01-15T10:25:43;1.70;99.90
17845;DHT22;9047;53.486;10.218;2024-01-15T10:28:10;1.60;99.90
17845;DHT22;9047;53.486;10.218;2024-01-15T10:30:37;1.60;99.90
17845;DHT22;9047;53.486;10.218;2024-01-15T10:33:04;1.60;99.90
17845;DHT22;9047;53.486;10.218;2024-01-15T10:35:32;1.60;99.90
17845;DHT22;9047;53.486;10.218;2024-01-15T10:38:00;1.60;99.90
17845;DHT22;9047;53.486;10.218;2024-01-15T10:40:27;1.70;99.90
17845;DHT22;9047;53.486;10.218;2024-01-15T10:42:55;1.70;99.90
17845;DHT22;9047;53.486;10.218;2024-01-15T10:45:22;1.80;99.90
17845;DHT22;9047;53.486;10.218;2024-01-15T10:47:49;1.80;99.90
17845;DHT22;9047;53.486;10.218;2024-01-15T10:50:16;1.90;99.90
17845;DHT22;9047;53.486;10.218;2024-01-15T10:52:43;2.00;99.90
17845;DHT22;9047;53.486;10.218;2024-01-15T10:55:11;2.00;99.90
17845;DHT22;9047;53.486;10.218;2024-01-15T10:57:38;2.10;99.90
17845;DHT22;9047;53.486;10.218;2024-01-15T11:00:10;2.10;99.90
17845;DHT22;9047;53.486;10.218;2024-01-15T11:02:40;2.10;99.90
17845;DHT22;9047;53.486;10.218;2024-01-15T11:05:10;2.10;99.90
17845;DHT22;9047;53.486;10.218;2024-01-15T11:07:39;2.00;99.90
17845;DHT22;9047;53.486;10.218;2024-01-15T11:10:07;2.00;99.90
17845;DHT22;9047;53.486;10.218;2024-01-15T11:12:35;2.00;99.90
17845;DHT22;9047;53.486;10.218;2024-01-15T11:15:04;1.90;99.90
17845;DHT22;9047;53.486;10.218;2024-01-15T11:18:00;1.90;99.90
17845;DHT22;9047;53.486;10.218;2024-01-15T11:20:29;1.90;99.90
17845;DHT22;9047;53.486;10.218;2024-01-15T11:22:56;1.80;99.90
17845;DHT22;9047;53.486;10.218;2024-01-15T11:25:34;1.70;99.90
17845;DHT22;9047;53.486;10.218;2024-01-15T11:28:02;1.70;99.90
17845;DHT22;9047;53.486;10.218;2024-01-15T11:30:32;1.60;99.90
17845;DHT22;9047;53.486;10.218;2024-01-15T11:33:04;1.70;99.90
17845;DHT22;9047;53.486;10.218;2024-01-15T11:35:48;1.80;99.90
17845;DHT22;9047;53.486;10.218;2024-01-15T11:38:27;1.90;99.90
17845;DHT22;9047;53.486;10.218;2024-01-15T11:40:55;1.90;99.90
17845;DHT22;9047;53.486;10.218;2024-01-15T11:43:22;2.00;99.90
17845;DHT22;9047;53.486;10.218;2024-01-15T11:45:52;2.00;99.90
17845;DHT22;9047;53.486;10.218;2024-01-15T11:48:35;2.00;99.90
17845;DHT22;9047;53.486;10.218;2024-01-15T11:51:08;2.00;99.90
17845;DHT22;9047;53.486;10.218;2024-01-15T11:53:43;2.00;99.90
17845;DHT22;9047;53.486;10.218;2024-01-15T11:56:15;2.00;99.90
17845;DHT22;9047;53.486;10.218;2024-01-15T11:58:42;2.00;99.90
17845;DHT22;9047;53.486;10.218;2024-01-15T12:01:11;2.00;99.90
17845;DHT22;9047;53.486;10.218;2024-01-15T12:03:41;2.00;99.90
17845;DHT22;9047;53.486;10.218;2024-01-15T12:06:09;2.00;99.90
17845;DHT22;9047;53.486;10.218;2024-01-15T12:08:38;2.00;99.90
17845;DHT22;9047;53.486;10.218;2024-01-15T12:11:14;2.00;99.90
17845;DHT22;9047;53.486;10.218;2024-01-15T12:13:43;2.00;99.90
17845;DHT22;9047;53.486;10.218;2024-01-15T12:16:10;2.00;99.90
17845;DHT22;9047;53.486;10.218;2024-01-15T12:18:41;2.00;99.90
17845;DHT22;9047;53.486;10.218;2024-01-15T12:21:09;2.00;99.90
17845;DHT22;9047;53.486;10.218;2024-01-15T12:23:37;2.10;99.90
17845;DHT22;9047;53.486;10.218;2024-01-15T12:26:05;2.00;99.90
17845;DHT22;9047;53.486;10.218;2024-01-15T12:28:32;2.00;99.90
17845;DHT22;9047;53.486;10.218;2024-01-15T12:31:02;2.00;99.90
17845;DHT22;9047;53.486;10.218;2024-01-15T12:33:30;2.00;99.90
17845;DHT22;9047;53.486;10.218;2024-01-15T12:36:03;1.80;99.90
17845;DHT22;9047;53.486;10.218;2024-01-15T12:38:32;1.90;99.90
17845;DHT22;9047;53.486;10.218;2024-01-15T12:41:00;1.90;99.90
17845;DHT22;9047;53.486;10.218;2024-01-15T12:43:27;1.90;99.90
17845;DHT22;9047;53.486;10.218;2024-01-15T12:45:55;1.80;99.90
17845;DHT22;9047;53.486;10.218;2024-01-15T12:48:24;1.80;99.90
17845;DHT22;9047;53.486;10.218;2024-01-15T12:50:53;1.80;99.90
17845;DHT22;9047;53.486;10.218;2024-01-15T12:53:22;1.90;99.90
17845;DHT22;9047;53.486;10.218;2024-01-15T12:55:50;1.90;99.90
17845;DHT22;9047;53.486;10.218;2024-01-15T12:58:17;2.00;99.90
17845;DHT22;9047;53.486;10.218;2024-01-15T13:00:44;2.00;99.90
17845;DHT22;9047;53.486;10.218;2024-01-15T13:03:13;2.10;99.90
17845;DHT22;9047;53.486;10.218;2024-01-15T13:05:41;2.10;99.90
17845;DHT22;9047;53.486;10.218;2024-01-15T13:08:08;2.10;99.90
17845;DHT22;9047;53.486;10.218;2024-01-15T13:10:36;2.10;99.90
17845;DHT22;9047;53.486;10.218;2024-01-15T13:13:05;2.10;99.90
17845;DHT22;9047;53.486;10.218;2024-01-15T13:15:32;2.10;99.90
17845;DHT22;9047;53.486;10.218;2024-01-15T13:17:58;2.10;99.90
17845;DHT22;9047;53.486;10.218;2024-01-15T13:20:26;2.10;99.90
17845;DHT22;9047;53.486;10.218;2024-01-15T13:22:53;2.10;99.90
17845;DHT22;9047;53.486;10.218;2024-01-15T13:25:21;2.00;99.90
17845;DHT22;9047;53.486;10.218;2024-01-15T13:27:49;2.00;99.90
17845;DHT22;9047;53.486;10.218;2024-01-15T13:30:18;2.00;99.90
17845;DHT22;9047;53.486;10.218;2024-01-15T13:32:46;2.00;99.90
17845;DHT22;9047;53.486;10.218;2024-01-15T13:35:14;2.00;99.90
17845;DHT22;9047;53.486;10.218;2024-01-15T13:37:41;2.00;99.90
17845;DHT22;9047;53.486;10.218;2024-01-15T13:40:09;2.00;99.90
17845;DHT22;9047;53.486;10.218;2024-01-15T13:42:41;2.00;99.90
17845;DHT22;9047;53.486;10.218;2024-01-15T13:45:20;2.00;99.90
17845;DHT22;9047;53.486;10.218;2024-01-15T13:47:49;2.00;99.90
17845;DHT22;9047;53.486;10.218;2024-01-15T13:50:17;2.00;99.90
17845;DHT22;9047;53.486;10.218;2024-01-15T13:52:45;2.00;99.90
17845;DHT22;9047;53.486;10.218;2024-01-15T13:55:12;2.00;99.90
17845;DHT22;9047;53.486;10.218;2024-01-15T13:57:40;2.00;99.90
17845;DHT22;9047;53.486;10.218;2024-01-15T14:00:09;1.90;99.90
17845;DHT22;9047;53.486;10.218;2024-01-15T14:02:40;1.90;99.90
17845;DHT22;9047;53.486;10.218;2024-01-15T14:05:08;1.90;99.90
17845;DHT22;9047;53.486;10.218;2024-01-15T14:07:39;1.90;99.90
17845;DHT22;9047;53.486;10.218;2024-01-15T14:10:06;1.80;99.90
17845;DHT22;9047;53.486;10.218;2024-01-15T14:12:34;1.80;99.90
17845;DHT22;9047;53.486;10.218;2024-01-15T14:15:01;1.80;99.90
17845;DHT22;9047;53.486;10.218;2024-01-15T14:17:28;1.70;99.90
17845;DHT22;9047;53.486;10.218;2024-01-15T14:19:57;1.70;99.90
17845;DHT22;9047;53.486;10.218;2024-01-15T14:22:25;1.70;99.90
17845;DHT22;9047;53.486;10.218;2024-01-15T14:24:53;1.70;99.90
17845;DHT22;9047;53.486;10.218;2024-01-15T14:27:21;1.70;99.90
17845;DHT22;9047;53.486;10.218;2024-01-15T14:29:56;1.60;99.90
17845;DHT22;9047;53.486;10.218;2024-01-15T14:32:23;1.60;99.90
17845;DHT22;9047;53.486;10.218;2024-01-15T14:34:50;1.60;99.90
17845;DHT22;9047;53.486;10.218;2024-01-15T14:37:20;1.60;99.90
17845;DHT22;9047;53.486;10.218;2024-01-15T14:39:47;1.60;99.90
17845;DHT22;9047;53.486;10.218;2024-01-15T14:42:14;1.50;99.90
17845;DHT22;9047;53.486;10.218;2024-01-15T14:44:41;1.50;99.90
17845;DHT22;9047;53.486;10.218;2024-01-15T14:47:07;1.50;99.90
17845;DHT22;9047;53.486;10.218;2024-01-15T14:49:34;1.50;99.90
17845;DHT22;9047;53.486;10.218;2024-01-15T14:52:02;1.50;99.90
17845;DHT22;9047;53.486;10.218;2024-01-15T14:54:29;1.50;99.90
17845;DHT22;9047;53.486;10.218;2024-01-15T14:56:56;1.40;99.90
17845;DHT22;9047;53.486;10.218;2024-01-15T14:59:23;1.40;99.90
17845;DHT22;9047;53.486;10.218;2024-01-15T15:01:50;1.40;99.90
17845;DHT22;9047;53.486;10.218;2024-01-15T15:04:17;1.40;99.90
17845;DHT22;9047;53.486;10.218;2024-01-15T15:06:45;1.30;99.90
17845;DHT22;9047;53.486;10.218;2024-01-15T15:09:12;1.30;99.90
17845;DHT22;9047;53.486;10.218;2024-01-15T15:11:40;1.20;99.90
17845;DHT22;9047;53.486;10.218;2024-01-15T15:14:07;1.20;99.90
17845;DHT22;9047;53.486;10.218;2024-01-15T15:16:34;1.20;99.90
17845;DHT22;9047;53.486;10.218;2024-01-15T15:19:01;1.10;99.90
17845;DHT22;9047;53.486;10.218;2024-01-15T15:21:28;1.10;99.90
17845;DHT22;9047;53.486;10.218;2024-01-15T15:23:55;1.10;99.90
17845;DHT22;9047;53.486;10.218;2024-01-15T15:26:21;1.10;99.90
17845;DHT22;9047;53.486;10.218;2024-01-15T15:28:49;1.00;99.90
17845;DHT22;9047;53.486;10.218;2024-01-15T15:31:16;0.90;99.90
17845;DHT22;9047;53.486;10.218;2024-01-15T15:33:43;0.90;99.90
17845;DHT22;9047;53.486;10.218;2024-01-15T15:36:10;0.80;99.90
17845;DHT22;9047;53.486;10.218;2024-01-15T15:38:37;0.80;99.90
17845;DHT22;9047;53.486;10.218;2024-01-15T15:41:04;1.00;99.90
17845;DHT22;9047;53.486;10.218;2024-01-15T15:43:32;1.00;99.90
17845;DHT22;9047;53.486;10.218;2024-01-15T15:46:01;0.90;99.90
17845;DHT22;9047;53.486;10.218;2024-01-15T15:48:30;0.90;99.90
17845;DHT22;9047;53.486;10.218;2024-01-15T15:50:57;0.80;99.90